createdAt,value
2023-04-08T00:00:35.210Z,98257.88
2023-04-08T00:03:02.357Z,98263.25
2023-04-08T00:05:29.259Z,98256.94
2023-04-08T00:07:55.800Z,98261.13
2023-04-08T00:10:22.496Z,98261.09
2023-04-08T00:12:52.981Z,98266.97
2023-04-08T00:15:22.594Z,98265.63
2023-04-08T00:17:51.449Z,98252.06
2023-04-08T00:20:18.061Z,98263.25
2023-04-08T00:22:44.520Z,98257.50
2023-04-08T00:25:11.073Z,98257.22
2023-04-08T00:27:37.651Z,98242.56
2023-04-08T00:30:04.558Z,98256.16
2023-04-08T00:32:31.044Z,98257.38
2023-04-08T00:34:57.737Z,98265.41
2023-04-08T00:37:25.082Z,98254.16
2023-04-08T00:39:54.712Z,98250.63
2023-04-08T00:42:22.135Z,98243.13
2023-04-08T00:44:48.847Z,98250.38
2023-04-08T00:47:16.491Z,98243.91
2023-04-08T00:49:44.047Z,98239.91
2023-04-08T00:52:11.022Z,98248.25
2023-04-08T00:54:38.119Z,98248.69
2023-04-08T00:57:05.951Z,98244.72
2023-04-08T00:59:33.544Z,98246.31
2023-04-08T01:02:22.740Z,98244.13
2023-04-08T01:05:14.585Z,98244.00
2023-04-08T01:07:48.120Z,98230.94
2023-04-08T01:10:23.369Z,98236.50
2023-04-08T01:13:10.100Z,98233.56
2023-04-08T01:15:39.227Z,98237.25
2023-04-08T01:18:07.817Z,98221.50
2023-04-08T01:20:34.824Z,98241.16
2023-04-08T01:23:01.318Z,98253.28
2023-04-08T01:25:30.370Z,98228.41
2023-04-08T01:27:58.556Z,98242.94
2023-04-08T01:30:26.059Z,98249.66
2023-04-08T01:32:56.728Z,98247.56
2023-04-08T01:35:26.598Z,98234.63
2023-04-08T01:37:57.420Z,98239.47
2023-04-08T01:40:27.346Z,98242.81
2023-04-08T01:42:57.042Z,98239.72
2023-04-08T01:45:24.726Z,98227.59
2023-04-08T01:47:53.091Z,98227.09
2023-04-08T01:50:21.064Z,98233.53
2023-04-08T01:52:49.866Z,98241.56
2023-04-08T01:55:17.490Z,98237.31
2023-04-08T01:57:48.874Z,98245.63
2023-04-08T02:00:18.441Z,98232.53
2023-04-08T02:02:47.427Z,98235.75
2023-04-08T02:05:14.785Z,98227.22
2023-04-08T02:07:41.404Z,98228.06
2023-04-08T02:10:08.218Z,98223.19
2023-04-08T02:12:34.963Z,98225.38
2023-04-08T02:15:01.520Z,98220.38
2023-04-08T02:17:55.846Z,98238.22
2023-04-08T02:20:38.097Z,98235.84
2023-04-08T02:23:17.020Z,98241.53
2023-04-08T02:25:45.658Z,98242.97
2023-04-08T02:28:12.798Z,98246.94
2023-04-08T02:30:43.374Z,98240.38
2023-04-08T02:33:11.952Z,98240.53
2023-04-08T02:35:40.763Z,98241.72
2023-04-08T02:38:07.485Z,98240.56
2023-04-08T02:40:35.434Z,98242.75
2023-04-08T02:43:01.902Z,98239.19
2023-04-08T02:45:32.281Z,98244.47
2023-04-08T02:48:02.394Z,98238.03
2023-04-08T02:50:29.212Z,98241.97
2023-04-08T02:52:56.043Z,98239.94
2023-04-08T02:55:22.506Z,98243.75
2023-04-08T02:57:48.969Z,98244.22
2023-04-08T03:00:16.142Z,98241.59
2023-04-08T03:02:42.794Z,98228.16
2023-04-08T03:05:10.471Z,98246.25
2023-04-08T03:07:37.514Z,98236.22
2023-04-08T03:10:04.604Z,98237.31
2023-04-08T03:12:31.524Z,98229.19
2023-04-08T03:14:58.621Z,98238.25
2023-04-08T03:17:25.128Z,98237.47
2023-04-08T03:19:51.602Z,98239.84
2023-04-08T03:22:18.065Z,98239.84
2023-04-08T03:24:44.504Z,98253.41
2023-04-08T03:27:12.459Z,98247.69
2023-04-08T03:29:38.953Z,98247.44
2023-04-08T03:32:05.670Z,98243.59
2023-04-08T03:34:34.658Z,98244.31
2023-04-08T03:37:01.721Z,98253.00
2023-04-08T03:39:28.261Z,98256.69
2023-04-08T03:41:54.746Z,98259.91
2023-04-08T03:44:21.285Z,98271.56
2023-04-08T03:46:47.777Z,98261.66
2023-04-08T03:49:14.434Z,98248.34
2023-04-08T03:51:41.033Z,98263.63
2023-04-08T03:54:07.892Z,98248.13
2023-04-08T03:56:34.418Z,98259.38
2023-04-08T03:59:04.396Z,98258.31
2023-04-08T04:01:32.250Z,98256.75
2023-04-08T04:03:59.141Z,98249.47
2023-04-08T04:06:26.526Z,98248.28
2023-04-08T04:08:56.126Z,98260.81
2023-04-08T04:11:22.678Z,98259.13
2023-04-08T04:13:49.409Z,98250.91
2023-04-08T04:16:16.118Z,98255.91
2023-04-08T04:18:42.914Z,98263.06
2023-04-08T04:21:09.791Z,98251.41
2023-04-08T04:23:36.350Z,98264.03
2023-04-08T04:26:08.337Z,98248.06
2023-04-08T04:28:34.815Z,98250.66
2023-04-08T04:31:01.286Z,98270.81
2023-04-08T04:33:27.779Z,98253.75
2023-04-08T04:35:54.319Z,98262.09
2023-04-08T04:38:21.204Z,98269.75
2023-04-08T04:40:47.758Z,98273.41
2023-04-08T04:43:14.246Z,98266.38
2023-04-08T04:45:40.719Z,98276.41
2023-04-08T04:48:07.589Z,98275.69
2023-04-08T04:50:34.030Z,98279.97
2023-04-08T04:53:07.309Z,98273.13
2023-04-08T04:55:34.677Z,98284.94
2023-04-08T04:58:02.599Z,98275.06
2023-04-08T05:00:29.134Z,98271.50
2023-04-08T05:02:55.673Z,98267.66
2023-04-08T05:05:22.396Z,98269.22
2023-04-08T05:07:48.933Z,98278.91
2023-04-08T05:10:18.386Z,98282.34
2023-04-08T05:12:44.891Z,98297.81
2023-04-08T05:15:11.657Z,98281.66
2023-04-08T05:17:38.381Z,98300.81
2023-04-08T05:20:05.350Z,98287.56
2023-04-08T05:22:34.574Z,98296.63
2023-04-08T05:25:01.182Z,98302.38
2023-04-08T05:27:27.774Z,98293.19
2023-04-08T05:29:54.494Z,98307.13
2023-04-08T05:32:20.991Z,98316.53
2023-04-08T05:34:47.556Z,98324.19
2023-04-08T05:37:14.035Z,98313.84
2023-04-08T05:39:40.801Z,98314.91
2023-04-08T05:42:07.309Z,98316.44
2023-04-08T05:44:37.266Z,98315.50
2023-04-08T05:47:07.171Z,98327.41
2023-04-08T05:49:36.477Z,98335.66
2023-04-08T05:52:06.907Z,98328.38
2023-04-08T05:54:34.016Z,98338.84
2023-04-08T05:57:00.469Z,98346.84
2023-04-08T05:59:26.959Z,98334.31
2023-04-08T06:01:55.267Z,98334.91
2023-04-08T06:04:21.947Z,98343.16
2023-04-08T06:06:48.498Z,98336.34
2023-04-08T06:09:15.013Z,98355.31
2023-04-08T06:11:41.696Z,98356.75
2023-04-08T06:14:11.052Z,98350.75
2023-04-08T06:16:37.577Z,98362.19
2023-04-08T06:19:04.448Z,98367.31
2023-04-08T06:21:30.982Z,98361.25
2023-04-08T06:23:57.526Z,98362.19
2023-04-08T06:26:24.084Z,98357.69
2023-04-08T06:28:50.891Z,98344.91
2023-04-08T06:31:17.588Z,98379.06
2023-04-08T06:33:44.171Z,98363.69
2023-04-08T06:36:13.134Z,98370.13
2023-04-08T06:38:39.570Z,98381.81
2023-04-08T06:41:07.276Z,98349.72
2023-04-08T06:43:38.230Z,98353.84
2023-04-08T06:46:04.956Z,98357.81
2023-04-08T06:48:33.611Z,98376.00
2023-04-08T06:51:01.714Z,98387.72
2023-04-08T06:53:36.130Z,98367.31
2023-04-08T06:56:05.829Z,98378.25
2023-04-08T06:58:33.529Z,98366.78
2023-04-08T07:01:01.172Z,98371.06
2023-04-08T07:03:27.777Z,98373.88
2023-04-08T07:05:54.339Z,98382.81
2023-04-08T07:08:20.842Z,98361.75
2023-04-08T07:10:47.516Z,98378.34
2023-04-08T07:13:14.085Z,98367.25
2023-04-08T07:15:41.293Z,98400.94
2023-04-08T07:18:07.745Z,98382.97
2023-04-08T07:20:38.517Z,98399.81
2023-04-08T07:23:05.238Z,98394.63
2023-04-08T07:25:36.319Z,98412.34
2023-04-08T07:28:06.259Z,98408.22
2023-04-08T07:30:36.774Z,98416.28
2023-04-08T07:33:06.413Z,98416.66
2023-04-08T07:35:36.224Z,98422.38
2023-04-08T07:38:05.734Z,98399.28
2023-04-08T07:40:32.910Z,98399.22
2023-04-08T07:42:59.542Z,98403.06
2023-04-08T07:45:26.001Z,98405.31
2023-04-08T07:47:52.576Z,98409.94
2023-04-08T07:50:19.113Z,98400.16
2023-04-08T07:52:45.705Z,98397.25
2023-04-08T07:55:12.340Z,98412.19
2023-04-08T07:57:39.078Z,98378.69
2023-04-08T08:00:06.549Z,98405.69
2023-04-08T08:02:35.028Z,98413.16
2023-04-08T08:05:06.441Z,98406.56
2023-04-08T08:07:35.703Z,98411.06
2023-04-08T08:10:03.431Z,98418.88
2023-04-08T08:12:29.943Z,98399.44
2023-04-08T08:14:59.048Z,98413.78
2023-04-08T08:17:27.728Z,98414.97
2023-04-08T08:19:54.693Z,98408.41
2023-04-08T08:22:21.251Z,98388.91
2023-04-08T08:24:47.806Z,98423.53
2023-04-08T08:27:14.238Z,98412.78
2023-04-08T08:29:40.951Z,98416.91
2023-04-08T08:32:07.408Z,98409.06
2023-04-08T08:34:36.621Z,98413.38
2023-04-08T08:37:06.046Z,98413.72
2023-04-08T08:39:36.662Z,98397.78
2023-04-08T08:42:06.598Z,98398.47
2023-04-08T08:44:36.738Z,98413.53
2023-04-08T08:47:06.288Z,98394.47
2023-04-08T08:49:35.762Z,98412.34
2023-04-08T08:52:04.352Z,98390.25
2023-04-08T08:54:31.587Z,98417.69
2023-04-08T08:56:59.081Z,98395.09
2023-04-08T08:59:25.560Z,98401.94
2023-04-08T09:01:52.052Z,98413.75
2023-04-08T09:04:22.635Z,98390.53
2023-04-08T09:06:51.537Z,98409.34
2023-04-08T09:09:18.295Z,98387.72
2023-04-08T09:11:46.804Z,98401.69
2023-04-08T09:14:24.564Z,98417.28
2023-04-08T09:16:52.130Z,98400.06
2023-04-08T09:19:19.533Z,98406.69
2023-04-08T09:21:46.090Z,98387.06
2023-04-08T09:24:29.266Z,98407.56
2023-04-08T09:26:56.654Z,98399.59
2023-04-08T09:29:29.928Z,98408.47
2023-04-08T09:32:01.543Z,98407.25
2023-04-08T09:34:34.664Z,98402.09
2023-04-08T09:37:01.421Z,98403.31
2023-04-08T09:39:27.919Z,98399.06
2023-04-08T09:41:58.471Z,98393.81
2023-04-08T09:44:29.052Z,98374.22
2023-04-08T09:46:55.443Z,98405.41
2023-04-08T09:49:44.612Z,98388.81
2023-04-08T09:52:20.955Z,98396.56
2023-04-08T09:54:59.578Z,98393.88
2023-04-08T09:57:35.308Z,98397.47
2023-04-08T10:00:10.398Z,98391.81
2023-04-08T10:03:06.333Z,98393.06
2023-04-08T10:05:39.043Z,98394.78
2023-04-08T10:08:07.171Z,98373.78
2023-04-08T10:10:40.398Z,98391.56
2023-04-08T10:13:08.024Z,98386.97
2023-04-08T10:15:39.774Z,98381.41
2023-04-08T10:18:13.922Z,98389.25
2023-04-08T10:20:43.221Z,98375.91
2023-04-08T10:23:13.923Z,98391.69
2023-04-08T10:25:42.245Z,98381.00
2023-04-08T10:28:11.503Z,98392.28
2023-04-08T10:30:44.898Z,98396.50
2023-04-08T10:33:16.964Z,98382.38
2023-04-08T10:35:53.810Z,98384.47
2023-04-08T10:38:21.503Z,98382.94
2023-04-08T10:40:48.938Z,98369.41
2023-04-08T10:43:16.141Z,98365.31
2023-04-08T10:45:44.766Z,98375.78
2023-04-08T10:48:24.615Z,98387.94
2023-04-08T10:50:59.607Z,98375.31
2023-04-08T10:53:35.528Z,98363.28
2023-04-08T10:56:16.343Z,98361.16
2023-04-08T10:58:50.601Z,98358.72
2023-04-08T11:01:17.462Z,98335.31
2023-04-08T11:03:44.342Z,98356.19
2023-04-08T11:06:11.936Z,98365.53
2023-04-08T11:08:38.903Z,98334.03
2023-04-08T11:11:10.950Z,98352.94
2023-04-08T11:13:42.828Z,98358.91
2023-04-08T11:16:18.129Z,98352.41
2023-04-08T11:18:46.042Z,98336.41
2023-04-08T11:21:12.812Z,98352.91
2023-04-08T11:23:39.420Z,98329.50
2023-04-08T11:26:06.550Z,98342.81
2023-04-08T11:28:36.865Z,98344.41
2023-04-08T11:31:06.308Z,98351.66
2023-04-08T11:33:37.089Z,98338.03
2023-04-08T11:36:12.592Z,98337.22
2023-04-08T11:38:41.605Z,98348.56
2023-04-08T11:41:08.300Z,98345.00
2023-04-08T11:43:36.684Z,98342.38
2023-04-08T11:46:12.979Z,98334.09
2023-04-08T11:48:39.740Z,98333.13
2023-04-08T11:51:12.515Z,98331.47
2023-04-08T11:53:38.977Z,98328.91
2023-04-08T11:56:22.907Z,98345.69
2023-04-08T11:58:50.481Z,98345.34
2023-04-08T12:01:17.004Z,98321.25
2023-04-08T12:04:01.416Z,98317.63
2023-04-08T12:06:29.433Z,98327.78
2023-04-08T12:08:57.066Z,98331.25
2023-04-08T12:11:23.835Z,98331.56
2023-04-08T12:13:51.104Z,98336.72
2023-04-08T12:16:18.812Z,98335.72
2023-04-08T12:18:45.424Z,98330.03
2023-04-08T12:21:12.039Z,98331.50
2023-04-08T12:23:38.474Z,98299.72
2023-04-08T12:26:08.122Z,98324.66
2023-04-08T12:28:37.797Z,98328.75
2023-04-08T12:31:07.636Z,98313.09
2023-04-08T12:33:37.871Z,98310.03
2023-04-08T12:36:07.297Z,98323.84
2023-04-08T12:38:34.873Z,98305.59
2023-04-08T12:41:01.552Z,98312.09
2023-04-08T12:43:28.094Z,98335.38
2023-04-08T12:45:54.627Z,98319.19
2023-04-08T12:48:21.134Z,98322.09
2023-04-08T12:50:47.584Z,98313.09
2023-04-08T12:53:14.267Z,98302.94
2023-04-08T12:55:42.612Z,98325.31
2023-04-08T12:58:10.330Z,98303.66
2023-04-08T13:00:40.308Z,98318.19
2023-04-08T13:03:07.190Z,98315.53
2023-04-08T13:05:43.272Z,98300.50
2023-04-08T13:08:14.231Z,98312.59
2023-04-08T13:10:42.124Z,98306.16
2023-04-08T13:13:08.659Z,98309.56
2023-04-08T13:15:38.106Z,98303.97
2023-04-08T13:18:06.058Z,98276.53
2023-04-08T13:20:36.710Z,98298.94
2023-04-08T13:23:05.634Z,98288.31
2023-04-08T13:25:37.243Z,98279.38
2023-04-08T13:28:06.889Z,98308.22
2023-04-08T13:30:35.635Z,98292.88
2023-04-08T13:33:02.207Z,98279.38
2023-04-08T13:35:31.224Z,98291.09
2023-04-08T13:37:57.726Z,98272.19
2023-04-08T13:40:24.181Z,98265.97
2023-04-08T13:42:50.707Z,98297.44
2023-04-08T13:45:17.186Z,98287.75
2023-04-08T13:47:43.622Z,98280.31
2023-04-08T13:50:10.861Z,98266.72
2023-04-08T13:52:37.551Z,98279.59
2023-04-08T13:55:07.355Z,98261.09
2023-04-08T13:57:37.491Z,98268.72
2023-04-08T14:00:07.859Z,98258.34
2023-04-08T14:02:37.470Z,98274.16
2023-04-08T14:05:07.242Z,98270.72
2023-04-08T14:07:37.484Z,98276.72
2023-04-08T14:10:07.796Z,98247.31
2023-04-08T14:12:39.503Z,98272.00
2023-04-08T14:15:06.582Z,98255.97
2023-04-08T14:17:36.202Z,98256.81
2023-04-08T14:20:05.322Z,98248.91
2023-04-08T14:22:32.002Z,98245.41
2023-04-08T14:24:58.565Z,98255.22
2023-04-08T14:27:25.344Z,98261.50
2023-04-08T14:29:51.805Z,98256.25
2023-04-08T14:32:18.346Z,98249.47
2023-04-08T14:34:45.000Z,98266.84
2023-04-08T14:37:12.232Z,98256.81
2023-04-08T14:39:38.715Z,98255.44
2023-04-08T14:42:07.262Z,98258.00
2023-04-08T14:44:33.766Z,98237.53
2023-04-08T14:47:00.235Z,98254.09
2023-04-08T14:49:26.710Z,98251.84
2023-04-08T14:51:53.586Z,98234.31
2023-04-08T14:54:20.391Z,98237.56
2023-04-08T14:56:47.155Z,98255.84
2023-04-08T14:59:13.644Z,98247.84
2023-04-08T15:01:41.299Z,98236.25
2023-04-08T15:04:10.747Z,98255.97
2023-04-08T15:06:40.489Z,98245.06
2023-04-08T15:09:12.386Z,98252.88
2023-04-08T15:11:38.898Z,98239.53
2023-04-08T15:14:05.499Z,98259.03
2023-04-08T15:16:32.164Z,98244.38
2023-04-08T15:19:00.368Z,98246.97
2023-04-08T15:21:27.221Z,98243.00
2023-04-08T15:23:54.142Z,98241.28
2023-04-08T15:26:21.642Z,98256.50
2023-04-08T15:28:48.218Z,98270.94
2023-04-08T15:31:14.688Z,98262.69
2023-04-08T15:33:42.980Z,98254.50
2023-04-08T15:36:10.037Z,98263.66
2023-04-08T15:38:38.293Z,98257.28
2023-04-08T15:41:05.005Z,98239.13
2023-04-08T15:43:31.480Z,98269.06
2023-04-08T15:45:57.950Z,98262.16
2023-04-08T15:48:24.426Z,98262.56
2023-04-08T15:50:53.718Z,98256.97
2023-04-08T15:53:20.589Z,98237.94
2023-04-08T15:55:47.234Z,98236.66
2023-04-08T15:58:13.710Z,98266.94
2023-04-08T16:00:40.458Z,98242.22
2023-04-08T16:03:11.996Z,98269.19
2023-04-08T16:05:41.495Z,98260.09
2023-04-08T16:08:11.665Z,98275.16
2023-04-08T16:10:39.546Z,98256.31
2023-04-08T16:13:08.370Z,98265.69
2023-04-08T16:15:38.840Z,98244.47
2023-04-08T16:18:09.914Z,98255.50
2023-04-08T16:20:39.405Z,98254.88
2023-04-08T16:23:07.495Z,98234.69
2023-04-08T16:25:33.973Z,98257.19
2023-04-08T16:28:00.438Z,98235.00
2023-04-08T16:30:27.455Z,98234.84
2023-04-08T16:32:54.074Z,98244.53
2023-04-08T16:35:22.293Z,98262.78
2023-04-08T16:37:48.927Z,98244.34
2023-04-08T16:40:15.561Z,98257.13
2023-04-08T16:42:42.562Z,98268.16
2023-04-08T16:45:09.513Z,98236.13
2023-04-08T16:47:38.375Z,98253.41
2023-04-08T16:50:10.378Z,98259.56
2023-04-08T16:52:39.935Z,98262.66
2023-04-08T16:57:40.841Z,98251.34
2023-04-08T17:00:10.995Z,98272.50
2023-04-08T17:02:41.688Z,98269.69
2023-04-08T17:05:09.081Z,98261.22
2023-04-08T17:07:38.282Z,98271.34
2023-04-08T17:10:06.076Z,98268.47
2023-04-08T17:12:33.092Z,98274.63
2023-04-08T17:15:01.444Z,98258.81
2023-04-08T17:17:27.989Z,98266.03
2023-04-08T17:19:54.726Z,98254.84
2023-04-08T17:22:23.225Z,98264.13
2023-04-08T17:24:49.813Z,98256.03
2023-04-08T17:27:16.368Z,98275.16
2023-04-08T17:29:45.914Z,98254.16
2023-04-08T17:32:12.754Z,98263.41
2023-04-08T17:34:41.801Z,98247.31
2023-04-08T17:37:11.147Z,98286.84
2023-04-08T17:39:41.134Z,98262.34
2023-04-08T17:42:08.383Z,98247.88
2023-04-08T17:44:35.014Z,98271.44
2023-04-08T17:47:01.930Z,98260.81
2023-04-08T17:52:46.309Z,98279.16
2023-04-08T17:55:16.200Z,98290.91
2023-04-08T17:57:42.899Z,98290.81
2023-04-08T18:00:10.002Z,98288.75
2023-04-08T18:02:38.442Z,98279.31
2023-04-08T18:05:07.693Z,98266.63
2023-04-08T18:07:35.390Z,98289.38
2023-04-08T18:10:02.651Z,98277.91
2023-04-08T18:12:29.505Z,98295.31
2023-04-08T18:14:59.061Z,98295.78
2023-04-08T18:17:26.198Z,98289.09
2023-04-08T18:19:52.865Z,98303.72
2023-04-08T18:22:20.636Z,98307.69
2023-04-08T18:24:47.298Z,98305.19
2023-04-08T18:27:13.811Z,98301.16
2023-04-08T18:29:40.522Z,98305.56
2023-04-08T18:32:11.049Z,98311.53
2023-04-08T18:34:40.632Z,98304.09
2023-04-08T18:37:11.032Z,98323.22
2023-04-08T18:39:40.971Z,98318.13
2023-04-08T18:42:10.959Z,98308.28
2023-04-08T18:44:41.121Z,98331.66
2023-04-08T18:47:11.073Z,98302.75
2023-04-08T18:49:40.699Z,98318.09
2023-04-08T18:52:10.061Z,98330.06
2023-04-08T18:54:39.666Z,98319.63
2023-04-08T18:57:08.282Z,98326.63
2023-04-08T18:59:35.280Z,98335.59
2023-04-08T19:02:01.836Z,98345.31
2023-04-08T19:04:28.443Z,98331.53
2023-04-08T19:06:55.072Z,98343.31
2023-04-08T19:09:21.684Z,98333.28
2023-04-08T19:11:48.489Z,98337.84
2023-04-08T19:14:15.542Z,98358.31
2023-04-08T19:16:42.157Z,98346.41
2023-04-08T19:19:08.704Z,98362.66
2023-04-08T19:21:38.362Z,98358.09
2023-04-08T19:24:08.534Z,98350.97
2023-04-08T19:26:38.335Z,98351.53
2023-04-08T19:29:04.798Z,98368.50
2023-04-08T19:31:31.357Z,98366.00
2023-04-08T19:33:57.872Z,98371.38
2023-04-08T19:36:24.353Z,98375.38
2023-04-08T19:38:51.067Z,98377.56
2023-04-08T19:41:17.613Z,98376.22
2023-04-08T19:43:44.120Z,98384.88
2023-04-08T19:46:10.751Z,98385.03
2023-04-08T19:48:37.277Z,98398.50
2023-04-08T19:51:03.872Z,98390.56
2023-04-08T19:53:30.740Z,98400.19
2023-04-08T19:56:01.750Z,98395.53
2023-04-08T19:58:28.408Z,98397.53
2023-04-08T20:00:54.827Z,98403.00
2023-04-08T20:03:21.540Z,98404.81
2023-04-08T20:05:48.210Z,98407.31
2023-04-08T20:08:15.139Z,98397.34
2023-04-08T20:10:42.446Z,98405.31
2023-04-08T20:13:08.968Z,98405.47
2023-04-08T20:15:35.731Z,98405.63
2023-04-08T20:18:02.814Z,98407.47
2023-04-08T20:20:30.124Z,98401.94
2023-04-08T20:22:56.612Z,98412.34
2023-04-08T20:25:23.221Z,98413.94
2023-04-08T20:27:49.735Z,98410.13
2023-04-08T20:30:16.696Z,98406.41
2023-04-08T20:32:43.265Z,98414.75
2023-04-08T20:35:13.426Z,98406.78
2023-04-08T20:37:40.098Z,98404.00
2023-04-08T20:40:08.322Z,98397.34
2023-04-08T20:42:35.135Z,98409.28
2023-04-08T20:45:01.851Z,98418.03
2023-04-08T20:47:28.604Z,98405.91
2023-04-08T20:49:55.130Z,98408.94
2023-04-08T20:52:21.838Z,98404.25
2023-04-08T20:54:48.318Z,98415.69
2023-04-08T20:57:14.746Z,98409.88
2023-04-08T20:59:44.040Z,98417.94
2023-04-08T21:02:13.819Z,98409.13
2023-04-08T21:04:43.972Z,98419.59
2023-04-08T21:07:13.511Z,98421.53
2023-04-08T21:09:43.221Z,98420.56
2023-04-08T21:12:13.525Z,98421.34
2023-04-08T21:14:45.225Z,98408.22
2023-04-08T21:17:12.052Z,98409.91
2023-04-08T21:19:38.516Z,98409.69
2023-04-08T21:22:05.956Z,98403.88
2023-04-08T21:24:33.041Z,98398.13
2023-04-08T21:26:59.492Z,98399.69
2023-04-08T21:29:26.009Z,98417.78
2023-04-08T21:31:52.598Z,98397.84
2023-04-08T21:34:19.097Z,98404.03
2023-04-08T21:36:45.564Z,98404.00
2023-04-08T21:39:15.145Z,98412.78
2023-04-08T21:41:44.566Z,98418.75
2023-04-08T21:44:14.114Z,98418.47
2023-04-08T21:46:42.719Z,98406.66
2023-04-08T21:49:13.505Z,98417.72
2023-04-08T21:51:43.159Z,98420.84
2023-04-08T21:54:09.658Z,98414.91
2023-04-08T21:56:36.084Z,98408.91
2023-04-08T21:59:02.502Z,98408.84
2023-04-08T22:01:29.040Z,98418.88
2023-04-08T22:03:56.253Z,98413.88
2023-04-08T22:06:32.212Z,98406.09
2023-04-08T22:08:59.574Z,98404.56
2023-04-08T22:11:26.114Z,98413.41
2023-04-08T22:13:52.610Z,98408.13
2023-04-08T22:16:19.127Z,98406.22
2023-04-08T22:18:45.700Z,98405.94
2023-04-08T22:21:14.637Z,98415.88
2023-04-08T22:23:42.002Z,98411.69
2023-04-08T22:26:09.144Z,98410.81
2023-04-08T22:28:35.717Z,98407.28
2023-04-08T22:31:02.205Z,98408.72
2023-04-08T22:33:28.744Z,98404.03
2023-04-08T22:35:57.339Z,98410.81
2023-04-08T22:38:23.912Z,98415.78
2023-04-08T22:40:50.416Z,98414.13
2023-04-08T22:43:16.832Z,98414.31
2023-04-08T22:45:43.884Z,98409.97
2023-04-08T22:48:10.624Z,98409.25
2023-04-08T22:50:37.088Z,98406.97
2023-04-08T22:53:03.800Z,98398.06
2023-04-08T22:55:31.053Z,98397.00
2023-04-08T22:57:57.658Z,98400.75
2023-04-08T23:00:24.110Z,98399.63
2023-04-08T23:02:50.730Z,98392.03
2023-04-08T23:05:18.285Z,98384.66
2023-04-08T23:07:47.072Z,98394.06
2023-04-08T23:10:13.618Z,98382.28
2023-04-08T23:12:40.485Z,98388.22
2023-04-08T23:15:07.366Z,98394.78
2023-04-08T23:17:33.799Z,98394.31
2023-04-08T23:20:00.283Z,98389.78
2023-04-08T23:22:26.753Z,98395.22
2023-04-08T23:24:53.531Z,98392.28
2023-04-08T23:27:20.339Z,98385.63
2023-04-08T23:29:50.784Z,98401.31
2023-04-08T23:32:18.472Z,98401.16
2023-04-08T23:34:44.921Z,98387.16
2023-04-08T23:37:11.377Z,98394.50
2023-04-08T23:39:37.841Z,98400.91
2023-04-08T23:42:04.340Z,98398.69
2023-04-08T23:44:30.808Z,98392.44
2023-04-08T23:46:57.256Z,98384.38
2023-04-08T23:49:23.749Z,98393.69
2023-04-08T23:51:50.318Z,98403.25
2023-04-08T23:54:18.945Z,98386.72
2023-04-08T23:56:45.480Z,98387.16
2023-04-08T23:59:11.905Z,98393.69
